sensor_id;sensor_type;location;lat;lon;timestamp;temperature;humidity
51793;DHT22;37850;53.178;6.376;2022-11-20T00:00:57;-1.00;99.90
51793;DHT22;37850;53.178;6.376;2022-11-20T00:03:23;-1.00;99.90
51793;DHT22;37850;53.178;6.376;2022-11-20T00:05:48;-1.00;99.90
51793;DHT22;37850;53.178;6.376;2022-11-20T00:08:14;-1.00;99.90
51793;DHT22;37850;53.178;6.376;2022-11-20T00:10:40;-1.00;99.90
51793;DHT22;37850;53.178;6.376;2022-11-20T00:13:06;-0.90;99.90
51793;DHT22;37850;53.178;6.376;2022-11-20T00:15:33;-1.00;99.90
51793;DHT22;37850;53.178;6.376;2022-11-20T00:17:59;-0.90;99.90
51793;DHT22;37850;53.178;6.376;2022-11-20T00:20:25;-0.90;99.90
51793;DHT22;37850;53.178;6.376;2022-11-20T00:22:51;-0.90;99.90
51793;DHT22;37850;53.178;6.376;2022-11-20T00:25:16;-0.90;99.90
51793;DHT22;37850;53.178;6.376;2022-11-20T00:27:42;-0.90;99.90
51793;DHT22;37850;53.178;6.376;2022-11-20T00:30:08;-0.90;99.90
51793;DHT22;37850;53.178;6.376;2022-11-20T00:32:34;-0.90;99.90
51793;DHT22;37850;53.178;6.376;2022-11-20T00:35:00;-0.90;99.90
51793;DHT22;37850;53.178;6.376;2022-11-20T00:37:26;-0.80;99.90
51793;DHT22;37850;53.178;6.376;2022-11-20T00:39:51;-0.80;99.90
51793;DHT22;37850;53.178;6.376;2022-11-20T00:42:17;-0.80;99.90
51793;DHT22;37850;53.178;6.376;2022-11-20T00:44:43;-0.80;99.90
51793;DHT22;37850;53.178;6.376;2022-11-20T00:47:08;-0.80;99.90
51793;DHT22;37850;53.178;6.376;2022-11-20T00:49:34;-0.80;99.90
51793;DHT22;37850;53.178;6.376;2022-11-20T00:52:00;-0.80;99.90
51793;DHT22;37850;53.178;6.376;2022-11-20T00:54:25;-0.80;99.90
51793;DHT22;37850;53.178;6.376;2022-11-20T00:56:53;-0.80;99.90
51793;DHT22;37850;53.178;6.376;2022-11-20T00:59:19;-0.70;99.90
51793;DHT22;37850;53.178;6.376;2022-11-20T01:01:44;-0.70;99.90
51793;DHT22;37850;53.178;6.376;2022-11-20T01:04:10;-0.20;99.90
51793;DHT22;37850;53.178;6.376;2022-11-20T01:06:37;-0.70;99.90
51793;DHT22;37850;53.178;6.376;2022-11-20T01:09:11;-0.70;99.90
51793;DHT22;37850;53.178;6.376;2022-11-20T01:11:40;-0.70;99.90
51793;DHT22;37850;53.178;6.376;2022-11-20T01:14:09;-0.70;99.90
51793;DHT22;37850;53.178;6.376;2022-11-20T01:16:39;-0.70;99.90
51793;DHT22;37850;53.178;6.376;2022-11-20T01:19:08;-0.60;99.90
51793;DHT22;37850;53.178;6.376;2022-11-20T01:21:37;-0.60;99.90
51793;DHT22;37850;53.178;6.376;2022-11-20T01:24:04;-0.60;99.90
51793;DHT22;37850;53.178;6.376;2022-11-20T01:26:32;-0.60;99.90
51793;DHT22;37850;53.178;6.376;2022-11-20T01:28:59;-0.30;99.90
51793;DHT22;37850;53.178;6.376;2022-11-20T01:31:28;-0.30;99.90
51793;DHT22;37850;53.178;6.376;2022-11-20T01:33:57;-0.60;99.90
51793;DHT22;37850;53.178;6.376;2022-11-20T01:36:26;-0.60;99.90
51793;DHT22;37850;53.178;6.376;2022-11-20T01:38:57;-0.60;99.90
51793;DHT22;37850;53.178;6.376;2022-11-20T01:41:24;-0.60;99.90
51793;DHT22;37850;53.178;6.376;2022-11-20T01:44:11;-0.60;99.90
51793;DHT22;37850;53.178;6.376;2022-11-20T01:46:38;-0.50;99.90
51793;DHT22;37850;53.178;6.376;2022-11-20T01:49:18;-0.50;99.90
51793;DHT22;37850;53.178;6.376;2022-11-20T01:51:57;-0.50;99.90
51793;DHT22;37850;53.178;6.376;2022-11-20T01:54:38;-0.50;99.90
51793;DHT22;37850;53.178;6.376;2022-11-20T01:57:07;-0.50;99.90
51793;DHT22;37850;53.178;6.376;2022-11-20T01:59:38;-0.50;99.90
51793;DHT22;37850;53.178;6.376;2022-11-20T02:02:04;-0.50;99.90
51793;DHT22;37850;53.178;6.376;2022-11-20T02:04:30;0.20;99.90
51793;DHT22;37850;53.178;6.376;2022-11-20T02:07:01;-0.40;99.90
51793;DHT22;37850;53.178;6.376;2022-11-20T02:09:28;-0.10;99.90
51793;DHT22;37850;53.178;6.376;2022-11-20T02:11:57;-0.40;99.90
51793;DHT22;37850;53.178;6.376;2022-11-20T02:14:24;-0.40;99.90
51793;DHT22;37850;53.178;6.376;2022-11-20T02:16:56;-0.40;99.90
51793;DHT22;37850;53.178;6.376;2022-11-20T02:19:29;-0.40;99.90
51793;DHT22;37850;53.178;6.376;2022-11-20T02:22:14;-0.40;99.90
51793;DHT22;37850;53.178;6.376;2022-11-20T02:24:44;-0.40;99.90
51793;DHT22;37850;53.178;6.376;2022-11-20T02:27:15;-0.40;99.90
51793;DHT22;37850;53.178;6.376;2022-11-20T02:29:51;0.00;99.90
51793;DHT22;37850;53.178;6.376;2022-11-20T02:32:29;-0.40;99.90
51793;DHT22;37850;53.178;6.376;2022-11-20T02:34:55;-0.40;99.90
51793;DHT22;37850;53.178;6.376;2022-11-20T02:37:23;-0.30;99.90
51793;DHT22;37850;53.178;6.376;2022-11-20T02:39:51;-0.30;99.90
51793;DHT22;37850;53.178;6.376;2022-11-20T02:42:18;-0.40;99.90
51793;DHT22;37850;53.178;6.376;2022-11-20T02:44:44;-0.30;99.90
51793;DHT22;37850;53.178;6.376;2022-11-20T02:47:10;-0.30;99.90
51793;DHT22;37850;53.178;6.376;2022-11-20T02:49:35;-0.30;99.90
51793;DHT22;37850;53.178;6.376;2022-11-20T02:52:01;-0.30;99.90
51793;DHT22;37850;53.178;6.376;2022-11-20T02:54:27;-0.30;99.90
51793;DHT22;37850;53.178;6.376;2022-11-20T02:56:53;0.20;99.90
51793;DHT22;37850;53.178;6.376;2022-11-20T02:59:18;-0.30;99.90
51793;DHT22;37850;53.178;6.376;2022-11-20T03:01:44;-0.30;99.90
51793;DHT22;37850;53.178;6.376;2022-11-20T03:04:10;-0.30;99.90
51793;DHT22;37850;53.178;6.376;2022-11-20T03:06:35;-0.20;99.90
51793;DHT22;37850;53.178;6.376;2022-11-20T03:09:01;0.40;99.90
51793;DHT22;37850;53.178;6.376;2022-11-20T03:11:27;-0.20;99.90
51793;DHT22;37850;53.178;6.376;2022-11-20T03:13:53;-0.20;99.90
51793;DHT22;37850;53.178;6.376;2022-11-20T03:16:20;-0.20;99.90
51793;DHT22;37850;53.178;6.376;2022-11-20T03:18:47;-0.20;99.90
51793;DHT22;37850;53.178;6.376;2022-11-20T03:21:14;-0.20;99.90
51793;DHT22;37850;53.178;6.376;2022-11-20T03:23:40;0.10;99.90
51793;DHT22;37850;53.178;6.376;2022-11-20T03:26:19;-0.20;99.90
51793;DHT22;37850;53.178;6.376;2022-11-20T03:28:49;-0.20;99.90
51793;DHT22;37850;53.178;6.376;2022-11-20T03:31:17;-0.20;99.90
51793;DHT22;37850;53.178;6.376;2022-11-20T03:33:43;-0.10;99.90
51793;DHT22;37850;53.178;6.376;2022-11-20T03:36:12;-0.10;99.90
51793;DHT22;37850;53.178;6.376;2022-11-20T03:38:38;-0.10;99.90
51793;DHT22;37850;53.178;6.376;2022-11-20T03:41:09;-0.20;99.90
51793;DHT22;37850;53.178;6.376;2022-11-20T03:43:35;0.30;99.90
51793;DHT22;37850;53.178;6.376;2022-11-20T03:46:01;-0.10;99.90
51793;DHT22;37850;53.178;6.376;2022-11-20T03:48:27;-0.10;99.90
51793;DHT22;37850;53.178;6.376;2022-11-20T03:51:05;-0.10;99.90
51793;DHT22;37850;53.178;6.376;2022-11-20T03:53:31;-0.10;99.90
51793;DHT22;37850;53.178;6.376;2022-11-20T03:55:57;-0.10;99.90
51793;DHT22;37850;53.178;6.376;2022-11-20T03:58:23;-0.10;99.90
51793;DHT22;37850;53.178;6.376;2022-11-20T04:00:48;-0.10;99.90
51793;DHT22;37850;53.178;6.376;2022-11-20T04:03:14;-0.10;99.90
51793;DHT22;37850;53.178;6.376;2022-11-20T04:05:40;-0.10;99.90
51793;DHT22;37850;53.178;6.376;2022-11-20T04:08:06;1.40;99.90
51793;DHT22;37850;53.178;6.376;2022-11-20T04:10:31;-0.10;99.90
51793;DHT22;37850;53.178;6.376;2022-11-20T04:12:57;0.00;99.90
51793;DHT22;37850;53.178;6.376;2022-11-20T04:15:23;-0.10;99.90
51793;DHT22;37850;53.178;6.376;2022-11-20T04:17:48;-0.10;99.90
51793;DHT22;37850;53.178;6.376;2022-11-20T04:20:14;-0.10;99.90
51793;DHT22;37850;53.178;6.376;2022-11-20T04:22:40;0.30;99.90
51793;DHT22;37850;53.178;6.376;2022-11-20T04:25:06;-0.10;99.90
51793;DHT22;37850;53.178;6.376;2022-11-20T04:27:32;-0.10;99.90
51793;DHT22;37850;53.178;6.376;2022-11-20T04:29:57;0.00;99.90
51793;DHT22;37850;53.178;6.376;2022-11-20T04:32:23;0.00;99.90
51793;DHT22;37850;53.178;6.376;2022-11-20T04:34:48;0.00;99.90
51793;DHT22;37850;53.178;6.376;2022-11-20T04:37:14;0.00;99.90
51793;DHT22;37850;53.178;6.376;2022-11-20T04:39:40;0.00;99.90
51793;DHT22;37850;53.178;6.376;2022-11-20T04:42:05;0.00;99.90
51793;DHT22;37850;53.178;6.376;2022-11-20T04:44:50;0.00;99.90
51793;DHT22;37850;53.178;6.376;2022-11-20T04:47:16;0.10;99.90
51793;DHT22;37850;53.178;6.376;2022-11-20T04:49:41;0.00;99.90
51793;DHT22;37850;53.178;6.376;2022-11-20T04:52:07;0.10;99.90
51793;DHT22;37850;53.178;6.376;2022-11-20T04:54:33;0.00;99.90
51793;DHT22;37850;53.178;6.376;2022-11-20T04:56:58;0.10;99.90
51793;DHT22;37850;53.178;6.376;2022-11-20T04:59:24;0.10;99.90
51793;DHT22;37850;53.178;6.376;2022-11-20T05:01:50;0.10;99.90
51793;DHT22;37850;53.178;6.376;2022-11-20T05:04:16;0.10;99.90
51793;DHT22;37850;53.178;6.376;2022-11-20T05:06:42;0.10;99.90
51793;DHT22;37850;53.178;6.376;2022-11-20T05:09:09;0.10;99.90
51793;DHT22;37850;53.178;6.376;2022-11-20T05:11:35;0.10;99.90
51793;DHT22;37850;53.178;6.376;2022-11-20T05:14:00;0.10;99.90
51793;DHT22;37850;53.178;6.376;2022-11-20T05:16:26;0.30;99.90
51793;DHT22;37850;53.178;6.376;2022-11-20T05:18:53;0.80;99.90
51793;DHT22;37850;53.178;6.376;2022-11-20T05:21:22;0.10;99.90
51793;DHT22;37850;53.178;6.376;2022-11-20T05:23:48;0.10;99.90
51793;DHT22;37850;53.178;6.376;2022-11-20T05:26:16;0.10;99.90
51793;DHT22;37850;53.178;6.376;2022-11-20T05:28:43;0.20;99.90
51793;DHT22;37850;53.178;6.376;2022-11-20T05:31:20;0.30;99.90
51793;DHT22;37850;53.178;6.376;2022-11-20T05:33:46;0.20;99.90
51793;DHT22;37850;53.178;6.376;2022-11-20T05:36:13;0.20;99.90
51793;DHT22;37850;53.178;6.376;2022-11-20T05:38:39;0.20;99.90
51793;DHT22;37850;53.178;6.376;2022-11-20T05:41:14;0.30;99.90
51793;DHT22;37850;53.178;6.376;2022-11-20T05:43:42;0.20;99.90
51793;DHT22;37850;53.178;6.376;2022-11-20T05:46:09;0.20;99.90
51793;DHT22;37850;53.178;6.376;2022-11-20T05:48:35;0.20;99.90
51793;DHT22;37850;53.178;6.376;2022-11-20T05:51:02;0.20;99.90
51793;DHT22;37850;53.178;6.376;2022-11-20T05:53:28;0.20;99.90
51793;DHT22;37850;53.178;6.376;2022-11-20T05:56:01;0.20;99.90
51793;DHT22;37850;53.178;6.376;2022-11-20T05:58:28;0.20;99.90
51793;DHT22;37850;53.178;6.376;2022-11-20T06:03:32;0.20;99.90
51793;DHT22;37850;53.178;6.376;2022-11-20T06:05:59;0.50;99.90
51793;DHT22;37850;53.178;6.376;2022-11-20T06:08:25;0.40;99.90
51793;DHT22;37850;53.178;6.376;2022-11-20T06:10:50;0.30;99.90
51793;DHT22;37850;53.178;6.376;2022-11-20T06:13:16;0.30;99.90
51793;DHT22;37850;53.178;6.376;2022-11-20T06:15:42;0.30;99.90
51793;DHT22;37850;53.178;6.376;2022-11-20T06:18:07;0.90;99.90
51793;DHT22;37850;53.178;6.376;2022-11-20T06:20:33;0.30;99.90
51793;DHT22;37850;53.178;6.376;2022-11-20T06:22:59;0.30;99.90
51793;DHT22;37850;53.178;6.376;2022-11-20T06:25:27;0.30;99.90
51793;DHT22;37850;53.178;6.376;2022-11-20T06:27:53;0.30;99.90
51793;DHT22;37850;53.178;6.376;2022-11-20T06:30:19;0.30;99.90
51793;DHT22;37850;53.178;6.376;2022-11-20T06:32:44;0.30;99.90
51793;DHT22;37850;53.178;6.376;2022-11-20T06:35:10;0.30;99.90
51793;DHT22;37850;53.178;6.376;2022-11-20T06:37:36;0.30;99.90
51793;DHT22;37850;53.178;6.376;2022-11-20T06:40:01;0.30;99.90
51793;DHT22;37850;53.178;6.376;2022-11-20T06:42:27;0.30;99.90
51793;DHT22;37850;53.178;6.376;2022-11-20T06:44:53;0.30;99.90
51793;DHT22;37850;53.178;6.376;2022-11-20T06:47:18;0.30;99.90
51793;DHT22;37850;53.178;6.376;2022-11-20T06:49:44;0.30;99.90
51793;DHT22;37850;53.178;6.376;2022-11-20T06:52:10;0.30;99.90
51793;DHT22;37850;53.178;6.376;2022-11-20T06:54:35;0.40;99.90
51793;DHT22;37850;53.178;6.376;2022-11-20T06:57:01;0.90;99.90
51793;DHT22;37850;53.178;6.376;2022-11-20T06:59:26;0.30;99.90
51793;DHT22;37850;53.178;6.376;2022-11-20T07:01:52;0.30;99.90
51793;DHT22;37850;53.178;6.376;2022-11-20T07:04:18;0.30;99.90
51793;DHT22;37850;53.178;6.376;2022-11-20T07:06:44;0.50;99.90
51793;DHT22;37850;53.178;6.376;2022-11-20T07:09:09;0.30;99.90
51793;DHT22;37850;53.178;6.376;2022-11-20T07:11:35;0.40;99.90
51793;DHT22;37850;53.178;6.376;2022-11-20T07:14:01;0.40;99.90
51793;DHT22;37850;53.178;6.376;2022-11-20T07:16:26;0.40;99.90
51793;DHT22;37850;53.178;6.376;2022-11-20T07:18:52;0.40;99.90
51793;DHT22;37850;53.178;6.376;2022-11-20T07:21:18;0.40;99.90
51793;DHT22;37850;53.178;6.376;2022-11-20T07:23:43;0.40;99.90
51793;DHT22;37850;53.178;6.376;2022-11-20T07:26:10;0.40;99.90
51793;DHT22;37850;53.178;6.376;2022-11-20T07:28:36;0.40;99.90
51793;DHT22;37850;53.178;6.376;2022-11-20T07:31:03;0.40;99.90
51793;DHT22;37850;53.178;6.376;2022-11-20T07:33:29;0.40;99.90
51793;DHT22;37850;53.178;6.376;2022-11-20T07:35:55;0.50;99.90
51793;DHT22;37850;53.178;6.376;2022-11-20T07:38:20;0.40;99.90
51793;DHT22;37850;53.178;6.376;2022-11-20T07:40:46;0.40;99.90
51793;DHT22;37850;53.178;6.376;2022-11-20T07:43:12;0.40;99.90
51793;DHT22;37850;53.178;6.376;2022-11-20T07:45:38;0.40;99.90
51793;DHT22;37850;53.178;6.376;2022-11-20T07:48:04;0.50;99.90
51793;DHT22;37850;53.178;6.376;2022-11-20T07:50:29;0.40;99.90
51793;DHT22;37850;53.178;6.376;2022-11-20T07:53:02;0.40;99.90
51793;DHT22;37850;53.178;6.376;2022-11-20T07:55:29;0.70;99.90
51793;DHT22;37850;53.178;6.376;2022-11-20T07:57:58;0.50;99.90
51793;DHT22;37850;53.178;6.376;2022-11-20T08:00:27;0.50;99.90
51793;DHT22;37850;53.178;6.376;2022-11-20T08:02:52;0.50;99.90
51793;DHT22;37850;53.178;6.376;2022-11-20T08:05:18;0.50;99.90
51793;DHT22;37850;53.178;6.376;2022-11-20T08:07:44;0.50;99.90
51793;DHT22;37850;53.178;6.376;2022-11-20T08:10:12;0.50;99.90
51793;DHT22;37850;53.178;6.376;2022-11-20T08:12:45;0.50;99.90
51793;DHT22;37850;53.178;6.376;2022-11-20T08:15:30;0.50;99.90
51793;DHT22;37850;53.178;6.376;2022-11-20T08:18:04;1.10;99.90
51793;DHT22;37850;53.178;6.376;2022-11-20T08:20:30;0.50;99.90
51793;DHT22;37850;53.178;6.376;2022-11-20T08:23:00;0.50;99.90
51793;DHT22;37850;53.178;6.376;2022-11-20T08:25:30;1.20;99.90
51793;DHT22;37850;53.178;6.376;2022-11-20T08:28:00;0.50;99.90
51793;DHT22;37850;53.178;6.376;2022-11-20T08:30:26;0.60;99.90
51793;DHT22;37850;53.178;6.376;2022-11-20T08:32:53;0.50;99.90
51793;DHT22;37850;53.178;6.376;2022-11-20T08:35:20;0.50;99.90
51793;DHT22;37850;53.178;6.376;2022-11-20T08:37:49;0.50;99.90
51793;DHT22;37850;53.178;6.376;2022-11-20T08:40:15;0.50;99.90
51793;DHT22;37850;53.178;6.376;2022-11-20T08:42:50;0.50;99.90
51793;DHT22;37850;53.178;6.376;2022-11-20T08:45:18;0.50;99.90
51793;DHT22;37850;53.178;6.376;2022-11-20T08:47:44;1.70;99.90
51793;DHT22;37850;53.178;6.376;2022-11-20T08:50:11;0.50;99.90
51793;DHT22;37850;53.178;6.376;2022-11-20T08:52:37;0.50;99.90
51793;DHT22;37850;53.178;6.376;2022-11-20T08:55:04;0.50;99.90
51793;DHT22;37850;53.178;6.376;2022-11-20T08:57:34;0.50;99.90
51793;DHT22;37850;53.178;6.376;2022-11-20T09:00:02;0.50;99.90
51793;DHT22;37850;53.178;6.376;2022-11-20T09:02:28;0.50;99.90
51793;DHT22;37850;53.178;6.376;2022-11-20T09:04:56;0.50;99.90
51793;DHT22;37850;53.178;6.376;2022-11-20T09:07:22;0.50;99.90
51793;DHT22;37850;53.178;6.376;2022-11-20T09:09:48;0.50;99.90
51793;DHT22;37850;53.178;6.376;2022-11-20T09:12:13;0.50;99.90
51793;DHT22;37850;53.178;6.376;2022-11-20T09:14:39;0.60;99.90
51793;DHT22;37850;53.178;6.376;2022-11-20T09:17:05;0.60;99.90
51793;DHT22;37850;53.178;6.376;2022-11-20T09:19:33;0.60;99.90
51793;DHT22;37850;53.178;6.376;2022-11-20T09:21:58;0.60;99.90
51793;DHT22;37850;53.178;6.376;2022-11-20T09:24:26;0.60;99.90
51793;DHT22;37850;53.178;6.376;2022-11-20T09:26:52;1.00;99.90
51793;DHT22;37850;53.178;6.376;2022-11-20T09:29:17;0.70;99.90
51793;DHT22;37850;53.178;6.376;2022-11-20T09:31:43;0.70;99.90
51793;DHT22;37850;53.178;6.376;2022-11-20T09:34:09;0.70;99.90
51793;DHT22;37850;53.178;6.376;2022-11-20T09:36:35;0.70;99.90
51793;DHT22;37850;53.178;6.376;2022-11-20T09:39:01;0.70;99.90
51793;DHT22;37850;53.178;6.376;2022-11-20T09:44:40;0.80;99.90
51793;DHT22;37850;53.178;6.376;2022-11-20T09:47:22;0.80;99.90
51793;DHT22;37850;53.178;6.376;2022-11-20T09:52:38;0.80;99.90
51793;DHT22;37850;53.178;6.376;2022-11-20T09:55:09;0.80;99.90
51793;DHT22;37850;53.178;6.376;2022-11-20T09:57:37;0.90;99.90
51793;DHT22;37850;53.178;6.376;2022-11-20T10:00:08;0.90;99.90
51793;DHT22;37850;53.178;6.376;2022-11-20T10:02:52;0.90;99.90
51793;DHT22;37850;53.178;6.376;2022-11-20T10:08:24;0.90;99.90
51793;DHT22;37850;53.178;6.376;2022-11-20T10:10:54;0.90;99.90
51793;DHT22;37850;53.178;6.376;2022-11-20T10:16:31;1.00;99.90
51793;DHT22;37850;53.178;6.376;2022-11-20T10:27:33;1.10;99.90
51793;DHT22;37850;53.178;6.376;2022-11-20T10:32:40;1.10;99.90
51793;DHT22;37850;53.178;6.376;2022-11-20T10:37:44;1.20;99.90
51793;DHT22;37850;53.178;6.376;2022-11-20T10:40:19;1.20;99.90
51793;DHT22;37850;53.178;6.376;2022-11-20T10:42:59;1.20;99.90
51793;DHT22;37850;53.178;6.376;2022-11-20T10:50:35;1.20;99.90
51793;DHT22;37850;53.178;6.376;2022-11-20T11:01:29;1.20;99.90
51793;DHT22;37850;53.178;6.376;2022-11-20T11:03:55;1.20;99.90
51793;DHT22;37850;53.178;6.376;2022-11-20T11:08:53;1.20;99.90
51793;DHT22;37850;53.178;6.376;2022-11-20T11:11:23;1.20;99.90
51793;DHT22;37850;53.178;6.376;2022-11-20T11:13:52;1.20;99.90
51793;DHT22;37850;53.178;6.376;2022-11-20T11:16:24;1.20;99.90
51793;DHT22;37850;53.178;6.376;2022-11-20T11:18:51;1.20;99.90
51793;DHT22;37850;53.178;6.376;2022-11-20T11:21:23;1.50;99.90
51793;DHT22;37850;53.178;6.376;2022-11-20T11:24:00;1.20;99.90
51793;DHT22;37850;53.178;6.376;2022-11-20T11:26:27;1.60;99.90
51793;DHT22;37850;53.178;6.376;2022-11-20T11:28:57;1.30;99.90
51793;DHT22;37850;53.178;6.376;2022-11-20T11:31:24;1.30;99.90
51793;DHT22;37850;53.178;6.376;2022-11-20T11:33:50;1.30;99.90
51793;DHT22;37850;53.178;6.376;2022-11-20T11:36:22;1.40;99.90
51793;DHT22;37850;53.178;6.376;2022-11-20T11:38:52;1.40;99.90
51793;DHT22;37850;53.178;6.376;2022-11-20T11:41:22;1.40;99.90
51793;DHT22;37850;53.178;6.376;2022-11-20T11:43:54;1.40;99.90
51793;DHT22;37850;53.178;6.376;2022-11-20T11:46:55;1.40;99.90
51793;DHT22;37850;53.178;6.376;2022-11-20T11:49:22;1.40;99.90
51793;DHT22;37850;53.178;6.376;2022-11-20T11:57:00;1.60;99.90
51793;DHT22;37850;53.178;6.376;2022-11-20T11:59:43;1.80;99.90
51793;DHT22;37850;53.178;6.376;2022-11-20T12:02:38;1.60;99.90
51793;DHT22;37850;53.178;6.376;2022-11-20T12:05:27;1.70;99.90
51793;DHT22;37850;53.178;6.376;2022-11-20T12:08:31;1.80;99.90
51793;DHT22;37850;53.178;6.376;2022-11-20T12:11:12;1.90;99.90
51793;DHT22;37850;53.178;6.376;2022-11-20T12:13:45;1.90;99.90
51793;DHT22;37850;53.178;6.376;2022-11-20T12:16:15;2.00;99.90
51793;DHT22;37850;53.178;6.376;2022-11-20T12:18:43;2.10;99.90
51793;DHT22;37850;53.178;6.376;2022-11-20T12:21:23;2.10;99.90
51793;DHT22;37850;53.178;6.376;2022-11-20T12:31:52;2.50;99.90
51793;DHT22;37850;53.178;6.376;2022-11-20T12:34:32;2.50;99.90
51793;DHT22;37850;53.178;6.376;2022-11-20T12:37:40;2.60;99.90
51793;DHT22;37850;53.178;6.376;2022-11-20T12:43:22;2.70;99.90
51793;DHT22;37850;53.178;6.376;2022-11-20T12:46:28;2.60;99.90
51793;DHT22;37850;53.178;6.376;2022-11-20T12:52:02;2.70;99.90
51793;DHT22;37850;53.178;6.376;2022-11-20T12:57:50;2.60;99.90
51793;DHT22;37850;53.178;6.376;2022-11-20T13:00:22;2.60;99.90
51793;DHT22;37850;53.178;6.376;2022-11-20T13:03:21;2.60;99.90
51793;DHT22;37850;53.178;6.376;2022-11-20T13:08:55;2.70;99.90
51793;DHT22;37850;53.178;6.376;2022-11-20T13:11:34;2.70;99.90
51793;DHT22;37850;53.178;6.376;2022-11-20T13:17:18;2.70;99.90
51793;DHT22;37850;53.178;6.376;2022-11-20T13:19:54;2.70;99.90
51793;DHT22;37850;53.178;6.376;2022-11-20T13:22:28;2.70;99.90
51793;DHT22;37850;53.178;6.376;2022-11-20T13:24:54;2.70;99.90
51793;DHT22;37850;53.178;6.376;2022-11-20T13:27:24;2.70;99.90
51793;DHT22;37850;53.178;6.376;2022-11-20T13:30:10;2.70;99.90
51793;DHT22;37850;53.178;6.376;2022-11-20T13:32:51;2.70;99.90
51793;DHT22;37850;53.178;6.376;2022-11-20T13:35:54;2.70;99.90
51793;DHT22;37850;53.178;6.376;2022-11-20T13:38:22;2.70;99.90
51793;DHT22;37850;53.178;6.376;2022-11-20T13:40:57;2.70;99.90
51793;DHT22;37850;53.178;6.376;2022-11-20T13:46:02;2.80;99.90
51793;DHT22;37850;53.178;6.376;2022-11-20T13:49:05;2.80;99.90
51793;DHT22;37850;53.178;6.376;2022-11-20T13:51:42;2.80;99.90
51793;DHT22;37850;53.178;6.376;2022-11-20T13:57:21;2.70;99.90
51793;DHT22;37850;53.178;6.376;2022-11-20T14:00:07;2.80;99.90
51793;DHT22;37850;53.178;6.376;2022-11-20T14:02:35;2.80;99.90
51793;DHT22;37850;53.178;6.376;2022-11-20T14:05:02;2.80;99.90
51793;DHT22;37850;53.178;6.376;2022-11-20T14:07:35;2.80;99.90
51793;DHT22;37850;53.178;6.376;2022-11-20T14:10:03;2.80;99.90
51793;DHT22;37850;53.178;6.376;2022-11-20T14:12:32;2.70;99.90
51793;DHT22;37850;53.178;6.376;2022-11-20T14:14:58;3.40;99.90
51793;DHT22;37850;53.178;6.376;2022-11-20T14:19:59;2.80;99.90
51793;DHT22;37850;53.178;6.376;2022-11-20T14:22:27;2.70;99.90
51793;DHT22;37850;53.178;6.376;2022-11-20T14:27:35;2.00;99.90
51793;DHT22;37850;53.178;6.376;2022-11-20T14:30:02;2.70;99.90
51793;DHT22;37850;53.178;6.376;2022-11-20T14:32:30;2.70;99.90
51793;DHT22;37850;53.178;6.376;2022-11-20T14:35:01;2.70;99.90
51793;DHT22;37850;53.178;6.376;2022-11-20T14:37:28;2.80;99.90
51793;DHT22;37850;53.178;6.376;2022-11-20T14:39:56;2.70;99.90
51793;DHT22;37850;53.178;6.376;2022-11-20T14:42:26;2.70;99.90
51793;DHT22;37850;53.178;6.376;2022-11-20T14:44:58;2.70;99.90
51793;DHT22;37850;53.178;6.376;2022-11-20T14:47:26;2.70;99.90
51793;DHT22;37850;53.178;6.376;2022-11-20T14:49:54;2.60;99.90
51793;DHT22;37850;53.178;6.376;2022-11-20T14:52:23;2.90;99.90
51793;DHT22;37850;53.178;6.376;2022-11-20T14:54:59;2.60;99.90
51793;DHT22;37850;53.178;6.376;2022-11-20T14:57:28;2.60;99.90
51793;DHT22;37850;53.178;6.376;2022-11-20T15:02:43;2.60;99.90
51793;DHT22;37850;53.178;6.376;2022-11-20T15:05:09;2.60;99.90
51793;DHT22;37850;53.178;6.376;2022-11-20T15:07:38;2.50;99.90
51793;DHT22;37850;53.178;6.376;2022-11-20T15:10:22;2.40;99.90
51793;DHT22;37850;53.178;6.376;2022-11-20T15:12:52;2.50;99.90
51793;DHT22;37850;53.178;6.376;2022-11-20T15:15:35;2.40;99.90
51793;DHT22;37850;53.178;6.376;2022-11-20T15:18:00;2.40;99.90
51793;DHT22;37850;53.178;6.376;2022-11-20T15:20:32;2.40;99.90
51793;DHT22;37850;53.178;6.376;2022-11-20T15:22:58;2.50;99.90
51793;DHT22;37850;53.178;6.376;2022-11-20T15:25:24;2.40;99.90
51793;DHT22;37850;53.178;6.376;2022-11-20T15:27:57;2.30;99.90
51793;DHT22;37850;53.178;6.376;2022-11-20T15:30:23;2.30;99.90
51793;DHT22;37850;53.178;6.376;2022-11-20T15:32:49;2.50;99.90
51793;DHT22;37850;53.178;6.376;2022-11-20T15:35:15;2.60;99.90
51793;DHT22;37850;53.178;6.376;2022-11-20T15:37:41;2.20;99.90
51793;DHT22;37850;53.178;6.376;2022-11-20T15:40:09;2.20;99.90
51793;DHT22;37850;53.178;6.376;2022-11-20T15:42:35;2.20;99.90
51793;DHT22;37850;53.178;6.376;2022-11-20T15:45:01;2.20;99.90
51793;DHT22;37850;53.178;6.376;2022-11-20T15:47:29;2.20;99.90
51793;DHT22;37850;53.178;6.376;2022-11-20T15:49:56;2.40;99.90
51793;DHT22;37850;53.178;6.376;2022-11-20T15:52:21;2.20;99.90
51793;DHT22;37850;53.178;6.376;2022-11-20T15:54:47;2.10;99.90
51793;DHT22;37850;53.178;6.376;2022-11-20T15:57:16;2.10;99.90
51793;DHT22;37850;53.178;6.376;2022-11-20T15:59:42;2.10;99.90
51793;DHT22;37850;53.178;6.376;2022-11-20T16:02:11;2.10;99.90
51793;DHT22;37850;53.178;6.376;2022-11-20T16:04:37;2.00;99.90
51793;DHT22;37850;53.178;6.376;2022-11-20T16:07:03;2.10;99.90
51793;DHT22;37850;53.178;6.376;2022-11-20T16:09:30;2.00;99.90
51793;DHT22;37850;53.178;6.376;2022-11-20T16:11:55;2.00;99.90
51793;DHT22;37850;53.178;6.376;2022-11-20T16:14:23;2.00;99.90
51793;DHT22;37850;53.178;6.376;2022-11-20T16:17:07;2.00;99.90
51793;DHT22;37850;53.178;6.376;2022-11-20T16:19:33;2.00;99.90
51793;DHT22;37850;53.178;6.376;2022-11-20T16:21:59;2.00;99.90
51793;DHT22;37850;53.178;6.376;2022-11-20T16:24:27;1.90;99.90
51793;DHT22;37850;53.178;6.376;2022-11-20T16:26:54;1.90;99.90
51793;DHT22;37850;53.178;6.376;2022-11-20T16:29:20;1.90;99.90
51793;DHT22;37850;53.178;6.376;2022-11-20T16:31:46;1.90;99.90
51793;DHT22;37850;53.178;6.376;2022-11-20T16:34:12;1.90;99.90
51793;DHT22;37850;53.178;6.376;2022-11-20T16:36:40;1.90;99.90
51793;DHT22;37850;53.178;6.376;2022-11-20T16:39:07;1.90;99.90
51793;DHT22;37850;53.178;6.376;2022-11-20T16:41:34;1.90;99.90
51793;DHT22;37850;53.178;6.376;2022-11-20T16:44:01;1.80;99.90
51793;DHT22;37850;53.178;6.376;2022-11-20T16:46:29;1.80;99.90
51793;DHT22;37850;53.178;6.376;2022-11-20T16:49:06;1.80;99.90
51793;DHT22;37850;53.178;6.376;2022-11-20T16:51:36;2.50;99.90
51793;DHT22;37850;53.178;6.376;2022-11-20T16:54:04;1.80;99.90
51793;DHT22;37850;53.178;6.376;2022-11-20T16:56:30;1.80;99.90
51793;DHT22;37850;53.178;6.376;2022-11-20T16:58:57;1.80;99.90
51793;DHT22;37850;53.178;6.376;2022-11-20T17:01:27;1.80;99.90
51793;DHT22;37850;53.178;6.376;2022-11-20T17:03:58;1.80;99.90
51793;DHT22;37850;53.178;6.376;2022-11-20T17:06:29;1.80;99.90
51793;DHT22;37850;53.178;6.376;2022-11-20T17:08:56;1.70;99.90
51793;DHT22;37850;53.178;6.376;2022-11-20T17:11:23;1.70;99.90
51793;DHT22;37850;53.178;6.376;2022-11-20T17:13:49;2.00;99.90
51793;DHT22;37850;53.178;6.376;2022-11-20T17:16:20;1.70;99.90
51793;DHT22;37850;53.178;6.376;2022-11-20T17:18:46;1.70;99.90
51793;DHT22;37850;53.178;6.376;2022-11-20T17:21:15;1.70;99.90